Time;durP1;ratioP1;P1;durP2;ratioP2;P2;SDS_P1;SDS_P2;PMS_P1;PMS_P2;Temp;Humidity;BMP_temperature;BMP_pressure;BME280_temperature;BME280_humidity;BME280_pressure;Samples;Min_cycle;Max_cycle;Signal;HPM_P1;HPM_P2
2023/07/05 00:02:40;;;;;;;18.10;8.00;;;;;;;16.53;91.34;98969.92;273864;1266;22206;-77
2023/07/05 00:08:42;;;;;;;14.90;8.80;;;;;;;16.48;91.46;98969.57;273919;1267;23097;-82
2023/07/05 00:14:43;;;;;;;17.00;9.40;;;;;;;16.47;92.00;98972.29;273804;1266;23765;-78
2023/07/05 00:20:43;;;;;;;15.40;8.30;;;;;;;16.43;92.25;98973.56;273823;1266;23458;-77
2023/07/05 00:26:44;;;;;;;13.60;8.80;;;;;;;16.40;92.67;98973.38;273905;1250;22260;-77
2023/07/05 00:32:46;;;;;;;12.80;7.70;;;;;;;16.32;92.62;98974.25;273767;1257;22191;-77
2023/07/05 00:38:46;;;;;;;14.70;10.00;;;;;;;16.19;92.78;98974.97;273870;1266;22285;-77
2023/07/05 00:45:30;;;;;;;13.40;8.90;;;;;;;16.12;93.62;98971.04;273893;1253;22341;-77
2023/07/05 00:52:09;;;;;;;12.50;8.20;;;;;;;16.10;94.55;98971.28;273625;1266;23291;-77
2023/07/05 00:58:11;;;;;;;13.90;8.00;;;;;;;16.13;94.92;98968.02;273895;1266;23317;-78
2023/07/05 01:04:12;;;;;;;13.20;8.30;;;;;;;16.18;95.37;98969.14;273926;1266;22408;-77
2023/07/05 01:10:56;;;;;;;14.50;8.60;;;;;;;16.17;95.60;98965.13;273872;1266;25126;-77
2023/07/05 01:17:40;;;;;;;14.40;8.70;;;;;;;16.19;96.02;98966.52;273931;1266;22353;-76
2023/07/05 01:23:52;;;;;;;14.00;7.90;;;;;;;16.11;96.16;98956.98;273788;1266;23512;-77
2023/07/05 01:30:23;;;;;;;12.60;7.70;;;;;;;16.02;96.36;98954.65;273915;1256;22320;-77
2023/07/05 01:36:25;;;;;;;11.00;8.00;;;;;;;15.92;96.70;98948.28;273849;1266;23277;-77
2023/07/05 01:43:03;;;;;;;13.00;7.80;;;;;;;15.95;97.41;98951.89;273846;1266;22945;-77
2023/07/05 01:49:24;;;;;;;12.70;8.20;;;;;;;15.90;97.02;98951.40;273779;1258;23311;-83
2023/07/05 01:55:50;;;;;;;14.80;9.00;;;;;;;15.76;96.97;98949.17;273796;1257;22460;-77
2023/07/05 02:01:54;;;;;;;16.90;9.10;;;;;;;15.61;97.07;98949.86;273757;1262;22211;-77
2023/07/05 02:07:56;;;;;;;14.20;9.40;;;;;;;15.48;97.30;98950.64;273853;1266;23057;-81
2023/07/05 02:13:57;;;;;;;15.60;8.60;;;;;;;15.33;97.70;98952.55;273867;1263;22389;-82
2023/07/05 02:19:58;;;;;;;15.90;9.20;;;;;;;15.23;97.86;98953.98;273912;1255;22189;-82
2023/07/05 02:26:04;;;;;;;14.10;9.20;;;;;;;15.15;98.09;98959.79;273904;1254;22383;-77
2023/07/05 02:32:05;;;;;;;17.90;8.50;;;;;;;15.08;98.77;98957.16;273654;1266;22220;-77
2023/07/05 02:38:09;;;;;;;12.80;7.80;;;;;;;15.04;99.05;98958.61;273882;1256;22398;-77
2023/07/05 02:44:31;;;;;;;14.10;8.80;;;;;;;14.96;99.10;98955.13;273746;1263;22379;-77
2023/07/05 02:50:32;;;;;;;10.90;7.80;;;;;;;14.92;99.56;98950.43;273332;1266;22896;-77
2023/07/05 02:56:35;;;;;;;11.30;7.60;;;;;;;14.83;99.53;98953.48;273598;1256;22216;-77
2023/07/05 03:02:37;;;;;;;17.80;8.50;;;;;;;14.77;99.86;98956.36;272990;1263;22437;-77
2023/07/05 03:08:38;;;;;;;13.30;8.30;;;;;;;14.78;100.00;98961.23;270728;1256;151065;-77
2023/07/05 03:14:39;;;;;;;14.20;7.70;;;;;;;14.72;99.92;98958.81;270645;1266;22518;-77
2023/07/05 03:20:40;;;;;;;15.00;7.70;;;;;;;14.74;100.00;98954.88;270477;1256;25393;-77
2023/07/05 03:26:41;;;;;;;15.30;8.50;;;;;;;14.69;100.00;98949.01;270719;1266;22555;-77
2023/07/05 03:32:43;;;;;;;15.70;8.10;;;;;;;14.58;100.00;98948.44;271257;1266;22568;-77
2023/07/05 03:38:45;;;;;;;15.20;7.60;;;;;;;14.55;100.00;98957.12;270576;1256;22506;-76
2023/07/05 03:44:46;;;;;;;16.70;7.60;;;;;;;14.61;100.00;98957.63;271715;1262;23607;-77
2023/07/05 03:50:47;;;;;;;14.10;7.70;;;;;;;14.74;100.00;98954.95;273360;1259;23139;-77
2023/07/05 03:56:48;;;;;;;12.50;6.90;;;;;;;14.93;100.00;98953.65;272512;1266;22430;-77
2023/07/05 04:02:49;;;;;;;15.20;8.50;;;;;;;15.12;100.00;98953.11;273809;1253;23120;-76
2023/07/05 04:08:50;;;;;;;15.80;8.50;;;;;;;15.30;100.00;98946.90;273891;1266;22396;-77
2023/07/05 04:14:51;;;;;;;13.70;8.00;;;;;;;15.45;100.00;98949.00;273942;1266;23181;-77
2023/07/05 04:20:52;;;;;;;11.80;7.50;;;;;;;15.61;100.00;98948.22;273984;1266;22439;-77
2023/07/05 04:26:53;;;;;;;15.40;8.20;;;;;;;15.78;100.00;98949.95;273876;1266;23279;-78
2023/07/05 04:32:54;;;;;;;14.40;8.20;;;;;;;15.94;100.00;98953.33;273390;1266;25385;-77
2023/07/05 04:38:57;;;;;;;16.00;8.20;;;;;;;16.08;100.00;98957.75;272422;1266;22561;-76
2023/07/05 04:44:58;;;;;;;14.30;8.90;;;;;;;16.24;100.00;98953.28;273830;1266;22334;-77
2023/07/05 04:51:01;;;;;;;12.40;8.30;;;;;;;16.40;100.00;98952.84;273732;1260;23645;-82
2023/07/05 04:57:23;;;;;;;15.80;8.50;;;;;;;16.59;100.00;98951.59;273885;1256;22183;-77
2023/07/05 05:03:24;;;;;;;15.60;9.10;;;;;;;16.80;100.00;98951.92;273773;1257;22249;-76
2023/07/05 05:09:24;;;;;;;18.90;8.40;;;;;;;17.00;100.00;98954.79;272362;1256;22567;-77
2023/07/05 05:15:26;;;;;;;14.80;8.10;;;;;;;17.21;100.00;98957.85;270759;1266;23905;-76
2023/07/05 05:21:27;;;;;;;16.30;9.00;;;;;;;17.44;100.00;98958.52;271846;1266;22876;-77
2023/07/05 05:27:28;;;;;;;14.20;7.40;;;;;;;17.69;100.00;98957.37;273730;1266;22446;-78
2023/07/05 05:33:29;;;;;;;15.50;8.50;;;;;;;17.96;100.00;98954.98;273922;1265;22368;-79
2023/07/05 05:39:32;;;;;;;15.30;7.80;;;;;;;18.25;100.00;98953.45;273888;1258;23615;-79
2023/07/05 05:45:34;;;;;;;14.90;7.60;;;;;;;18.54;100.00;98953.34;273006;1256;24612;-77
2023/07/05 05:51:35;;;;;;;14.90;6.60;;;;;;;18.81;100.00;98946.73;273564;1266;22282;-77
2023/07/05 05:57:36;;;;;;;11.30;7.20;;;;;;;19.08;100.00;98944.66;273792;1266;22422;-83
2023/07/05 06:03:37;;;;;;;9.30;6.90;;;;;;;19.36;100.00;98949.08;273879;1266;22413;-77
2023/07/05 06:09:48;;;;;;;10.90;6.70;;;;;;;19.63;100.00;98946.73;273768;1266;23556;-81
2023/07/05 06:15:54;;;;;;;12.50;6.50;;;;;;;19.92;100.00;98947.05;273776;1266;22364;-78
2023/07/05 06:21:55;;;;;;;10.30;6.30;;;;;;;20.19;100.00;98942.20;273358;1263;22619;-78
2023/07/05 06:27:56;;;;;;;12.50;6.60;;;;;;;20.44;99.92;98938.64;272959;1266;22401;-77
2023/07/05 06:34:17;;;;;;;11.00;6.90;;;;;;;20.78;99.18;98935.44;274013;1257;22268;-78
2023/07/05 06:40:19;;;;;;;11.80;6.00;;;;;;;21.12;98.13;98933.27;274006;1266;22187;-77
2023/07/05 06:46:40;;;;;;;10.80;6.30;;;;;;;21.42;97.33;98932.60;273713;1266;22247;-79
2023/07/05 06:52:41;;;;;;;9.70;5.80;;;;;;;21.73;96.10;98929.05;273827;1256;22402;-78
2023/07/05 06:58:42;;;;;;;10.40;5.80;;;;;;;22.13;95.45;98926.54;273915;1257;22855;-78
2023/07/05 07:04:44;;;;;;;11.20;5.30;;;;;;;22.66;94.54;98920.63;273783;1266;23156;-78
2023/07/05 07:10:46;;;;;;;8.80;5.50;;;;;;;23.39;93.47;98915.40;273515;1257;23105;-79
2023/07/05 07:16:47;;;;;;;9.60;5.60;;;;;;;24.12;91.12;98916.32;273840;1267;22404;-78
2023/07/05 07:22:48;;;;;;;7.40;4.40;;;;;;;24.80;88.41;98917.95;273806;1266;22483;-78
2023/07/05 07:29:05;;;;;;;6.30;4.20;;;;;;;25.42;84.24;98918.00;273893;1266;22441;-78
2023/07/05 07:35:06;;;;;;;9.50;4.50;;;;;;;25.92;81.39;98913.20;270890;1266;22905;-79
2023/07/05 07:41:35;;;;;;;7.80;4.80;;;;;;;26.30;80.06;98908.09;273705;1266;22588;-79
2023/07/05 07:47:36;;;;;;;8.90;5.10;;;;;;;26.49;77.92;98908.94;273688;1265;22194;-78
2023/07/05 07:53:37;;;;;;;8.00;4.10;;;;;;;26.85;76.13;98905.98;273806;1257;23110;-78
2023/07/05 07:59:41;;;;;;;6.50;4.20;;;;;;;27.09;73.81;98905.34;273854;1266;23528;-78
2023/07/05 08:05:42;;;;;;;8.00;4.80;;;;;;;27.07;69.70;98903.79;273739;1266;22449;-80
2023/07/05 08:11:44;;;;;;;8.20;3.90;;;;;;;26.98;66.13;98904.27;273776;1266;22398;-78
2023/07/05 08:17:45;;;;;;;6.40;4.60;;;;;;;27.02;63.67;98894.98;273704;1263;23379;-80
2023/07/05 08:23:46;;;;;;;8.10;4.50;;;;;;;27.06;59.65;98890.90;273708;1257;22204;-78
2023/07/05 08:29:47;;;;;;;6.00;4.10;;;;;;;27.25;60.32;98887.97;273948;1260;22194;-78
2023/07/05 08:35:49;;;;;;;8.60;4.20;;;;;;;27.47;57.49;98884.66;270090;1267;25313;-79
2023/07/05 08:42:26;;;;;;;8.10;3.70;;;;;;;27.64;56.53;98887.98;271815;1266;22084;-80
2023/07/05 08:48:28;;;;;;;6.60;3.90;;;;;;;27.75;55.61;98879.23;272158;1266;23660;-82
2023/07/05 08:54:34;;;;;;;4.90;3.50;;;;;;;27.79;55.13;98872.48;271238;1266;22457;-79
2023/07/05 09:01:28;;;;;;;5.00;3.60;;;;;;;27.74;52.04;98873.14;270953;1266;23293;-81
2023/07/05 09:07:52;;;;;;;6.60;3.50;;;;;;;27.67;49.83;98872.02;270626;1258;22498;-80
2023/07/05 09:15:03;;;;;;;7.50;3.50;;;;;;;27.74;50.04;98867.71;270709;1266;23822;-80
2023/07/05 09:21:29;;;;;;;8.60;3.80;;;;;;;27.85;47.39;98861.34;270278;1266;22272;-80
2023/07/05 09:27:33;;;;;;;7.30;3.80;;;;;;;27.95;46.47;98853.45;271768;1257;22523;-80
2023/07/05 09:34:22;;;;;;;8.10;4.30;;;;;;;27.99;45.57;98847.73;271185;1266;22231;-80
2023/07/05 09:40:40;;;;;;;5.60;4.00;;;;;;;28.10;45.29;98845.11;271025;1266;25339;-79
2023/07/05 09:46:43;;;;;;;5.70;3.90;;;;;;;28.38;44.43;98843.39;270635;1267;22546;-79
2023/07/05 09:52:49;;;;;;;5.70;3.30;;;;;;;28.85;44.24;98840.41;271763;1258;22474;-78
2023/07/05 09:59:13;;;;;;;5.70;3.30;;;;;;;29.27;42.81;98833.88;270790;1267;22500;-79
2023/07/05 10:05:17;;;;;;;5.10;3.90;;;;;;;29.53;42.63;98824.55;272804;1266;23248;-79
2023/07/05 10:11:41;;;;;;;6.50;4.20;;;;;;;29.84;43.73;98822.17;273338;1257;23711;-79
2023/07/05 10:18:02;;;;;;;7.50;4.50;;;;;;;29.92;43.03;98818.70;271188;1266;22554;-81
2023/07/05 10:24:04;;;;;;;8.10;4.80;;;;;;;29.97;43.40;98814.80;271654;1261;23497;-78
2023/07/05 10:30:30;;;;;;;6.80;4.40;;;;;;;30.12;42.78;98813.19;271985;1266;22560;-79
2023/07/05 10:36:31;;;;;;;8.00;4.00;;;;;;;30.37;42.61;98808.92;270227;1266;24230;-80
2023/07/05 10:42:33;;;;;;;6.70;3.90;;;;;;;30.77;42.42;98801.31;273133;1266;22453;-79
2023/07/05 10:48:38;;;;;;;6.50;4.50;;;;;;;30.85;41.28;98806.45;270971;1257;22775;-82
2023/07/05 10:55:25;;;;;;;7.40;3.90;;;;;;;30.89;41.88;98803.55;270678;1256;23808;-78
2023/07/05 11:02:18;;;;;;;6.30;3.80;;;;;;;30.84;40.72;98793.86;270133;1266;22542;-79
2023/07/05 11:16:26;;;;;;;4.70;3.10;;;;;;;31.25;39.81;98775.14;272353;1266;22266;-80
2023/07/05 11:22:44;;;;;;;4.40;3.40;;;;;;;31.36;38.71;98771.83;273841;1266;22451;-80
2023/07/05 11:29:24;;;;;;;4.80;3.70;;;;;;;31.60;39.21;98765.73;273996;1266;22248;-79
2023/07/05 11:36:08;;;;;;;5.30;3.40;;;;;;;31.80;38.90;98760.84;273894;1266;22654;-79
2023/07/05 11:42:51;;;;;;;;;;;;;;;;;;;;;
2023/07/05 11:49:25;;;;;;;4.50;3.50;;;;;;;31.98;36.78;98749.88;269235;1261;22203;-79
2023/07/05 11:55:30;;;;;;;4.10;3.50;;;;;;;32.08;36.84;98740.89;270139;1266;22646;-79
2023/07/05 12:01:33;;;;;;;4.60;3.80;;;;;;;31.99;36.61;98739.00;271267;1266;22565;-80
2023/07/05 12:07:35;;;;;;;4.30;3.60;;;;;;;31.75;37.16;98728.20;272068;1266;22623;-81
2023/07/05 12:13:36;;;;;;;6.20;3.70;;;;;;;31.74;37.00;98721.49;271626;1260;24215;-81
2023/07/05 12:19:37;;;;;;;6.10;3.70;;;;;;;31.58;36.71;98713.38;270657;1266;22239;-81
2023/07/05 12:25:39;;;;;;;4.20;3.40;;;;;;;31.14;37.39;98705.21;270506;1263;22401;-78
2023/07/05 12:31:40;;;;;;;7.10;4.10;;;;;;;30.88;37.53;98692.31;273421;1266;22371;-80
2023/07/05 12:37:58;;;;;;;5.70;3.50;;;;;;;30.52;37.20;98689.37;273747;1264;22237;-81
2023/07/05 12:44:01;;;;;;;7.10;4.20;;;;;;;30.30;37.04;98678.48;273963;1266;22425;-81
2023/07/05 12:50:03;;;;;;;7.80;3.90;;;;;;;30.07;37.17;98672.22;273864;1266;22928;-80
2023/07/05 12:56:08;;;;;;;7.20;3.50;;;;;;;29.74;37.90;98664.63;273917;1266;22557;-81
2023/07/05 13:02:29;;;;;;;6.50;3.80;;;;;;;29.71;39.12;98652.26;273651;1266;22600;-80
2023/07/05 13:08:31;;;;;;;4.80;3.80;;;;;;;29.70;38.89;98638.05;273659;1266;22440;-81
2023/07/05 13:14:41;;;;;;;5.90;3.80;;;;;;;29.62;38.62;98628.70;273605;1253;22919;-81
2023/07/05 13:20:47;;;;;;;4.20;3.20;;;;;;;29.41;38.81;98617.39;273507;1266;22192;-82
2023/07/05 13:26:47;;;;;;;7.50;3.60;;;;;;;29.26;39.05;98609.54;273386;1266;22514;-81
2023/07/05 13:32:54;;;;;;;4.80;3.10;;;;;;;29.22;39.29;98601.06;271640;1250;23171;-82
2023/07/05 13:38:55;;;;;;;5.40;3.20;;;;;;;29.33;39.59;98587.24;273653;1257;22313;-81
2023/07/05 13:44:56;;;;;;;5.30;3.90;;;;;;;29.45;39.41;98583.20;273817;1266;22402;-81
2023/07/05 13:50:57;;;;;;;6.40;3.60;;;;;;;29.60;39.55;98580.86;273203;1255;22358;-81
2023/07/05 13:57:19;;;;;;;5.80;3.10;;;;;;;29.66;39.01;98580.88;273888;1266;22220;-81
2023/07/05 14:03:21;;;;;;;5.30;3.50;;;;;;;29.63;38.93;98582.34;273696;1258;22402;-81
2023/07/05 14:09:22;;;;;;;3.80;3.10;;;;;;;29.56;39.13;98579.27;273825;1266;22304;-81
2023/07/05 14:15:36;;;;;;;5.00;3.40;;;;;;;29.49;39.25;98574.13;273590;1254;22348;-81
2023/07/05 14:21:40;;;;;;;10.40;3.70;;;;;;;29.46;39.11;98573.11;273771;1263;22404;-81
2023/07/05 14:27:47;;;;;;;5.40;3.60;;;;;;;29.45;39.36;98576.23;273611;1266;22471;-81
2023/07/05 14:33:49;;;;;;;6.00;3.50;;;;;;;29.48;39.01;98568.02;273700;1266;24250;-80
2023/07/05 14:39:50;;;;;;;4.70;3.60;;;;;;;29.42;38.47;98556.05;273619;1266;22453;-81
2023/07/05 14:45:51;;;;;;;6.30;3.30;;;;;;;29.43;38.59;98538.14;273844;1256;22470;-80
2023/07/05 14:51:53;;;;;;;5.40;3.50;;;;;;;29.45;38.79;98517.23;273829;1264;22413;-81
2023/07/05 14:58:28;;;;;;;6.50;3.80;;;;;;;29.36;38.98;98504.11;273672;1266;22465;-82
2023/07/05 15:04:29;;;;;;;4.40;3.40;;;;;;;29.17;38.76;98504.16;273543;1260;23187;-81
2023/07/05 15:10:30;;;;;;;6.10;3.50;;;;;;;28.97;38.30;98513.80;273598;1266;122866;-81
2023/07/05 15:16:31;;;;;;;4.50;3.40;;;;;;;28.74;38.51;98520.56;273683;1256;22420;-81
2023/07/05 15:22:31;;;;;;;4.80;3.70;;;;;;;28.54;39.09;98519.38;272143;1258;23889;-82
2023/07/05 15:28:34;;;;;;;7.00;3.60;;;;;;;28.36;39.65;98517.77;271243;1266;22557;-81
2023/07/05 15:34:35;;;;;;;7.40;3.90;;;;;;;28.21;40.24;98511.67;271554;1260;24343;-80
2023/07/05 15:40:36;;;;;;;6.80;4.30;;;;;;;28.06;40.76;98507.20;271556;1266;25405;-81
2023/07/05 15:46:37;;;;;;;5.50;3.50;;;;;;;27.95;41.80;98509.98;273419;1257;22447;-81
2023/07/05 15:52:38;;;;;;;4.80;3.70;;;;;;;27.76;43.38;98513.04;273687;1266;22391;-81
2023/07/05 15:58:50;;;;;;;8.30;3.90;;;;;;;27.41;44.53;98553.45;273803;1259;22943;-80
2023/07/05 16:05:09;;;;;;;8.50;4.10;;;;;;;26.75;45.79;98616.84;272529;1266;24528;-78
2023/07/05 16:11:12;;;;;;;9.80;3.60;;;;;;;26.01;47.80;98645.00;271672;1263;22191;-79
2023/07/05 16:17:14;;;;;;;20.40;6.20;;;;;;;25.18;50.84;98690.48;271348;1264;23396;-81
2023/07/05 16:23:16;;;;;;;13.80;4.40;;;;;;;23.67;54.86;98719.81;271316;1266;24378;-80
2023/07/05 16:29:17;;;;;;;8.50;3.90;;;;;;;22.49;58.74;98705.88;272791;1266;23153;-80
2023/07/05 16:35:19;;;;;;;12.20;4.40;;;;;;;21.87;61.86;98651.70;273486;1266;22393;-80
2023/07/05 16:48:52;;;;;;;7.30;3.40;;;;;;;20.36;66.40;98623.98;273203;1266;22215;-77
2023/07/05 16:55:23;;;;;;;12.70;4.30;;;;;;;20.17;69.50;98632.73;273529;1266;22403;-80
2023/07/05 17:01:48;;;;;;;7.60;3.40;;;;;;;20.12;70.04;98618.36;272325;1266;22536;-81
2023/07/05 17:08:18;;;;;;;6.40;3.30;;;;;;;20.00;71.08;98617.27;272596;1266;22435;-79
2023/07/05 17:14:39;;;;;;;5.90;3.40;;;;;;;19.94;73.69;98633.40;273626;1266;22418;-80
2023/07/05 17:21:06;;;;;;;5.90;3.20;;;;;;;19.96;74.77;98643.65;273744;1260;22375;-79
2023/07/05 17:28:22;;;;;;;6.00;3.40;;;;;;;19.94;76.56;98664.38;273565;1266;22356;-80
2023/07/05 17:35:49;;;;;;;6.30;4.10;;;;;;;19.88;78.22;98690.27;273352;1266;23624;-78
2023/07/05 17:42:25;;;;;;;;;;;;;;;;;;;;;
2023/07/05 17:48:36;;;;;;;9.00;5.30;;;;;;;19.92;80.50;98718.54;273553;1262;22626;-80
2023/07/05 17:55:41;;;;;;;7.10;4.70;;;;;;;19.80;82.06;98714.77;273711;1260;22339;-79
2023/07/05 18:02:12;;;;;;;;;;;;;;;;;;;;;
2023/07/05 18:09:04;;;;;;;9.10;5.00;;;;;;;19.82;85.08;98795.74;273675;1266;23355;-78
2023/07/05 18:15:18;;;;;;;9.30;5.10;;;;;;;19.70;85.83;98822.61;273513;1266;22450;-79
2023/07/05 18:21:25;;;;;;;9.20;5.00;;;;;;;19.63;87.10;98822.16;271534;1266;22568;-78
2023/07/05 18:27:41;;;;;;;6.10;4.40;;;;;;;19.60;87.47;98816.38;273751;1266;23589;-79
2023/07/05 18:33:42;;;;;;;8.20;4.10;;;;;;;19.55;88.57;98821.74;273670;1266;22958;-78
2023/07/05 18:39:43;;;;;;;8.10;4.00;;;;;;;19.52;89.04;98836.52;273691;1266;23029;-78
2023/07/05 18:45:45;;;;;;;8.90;4.70;;;;;;;19.45;89.19;98859.70;273713;1266;22560;-79
2023/07/05 18:51:46;;;;;;;8.20;4.80;;;;;;;19.27;89.47;98868.81;273631;1266;23704;-78
2023/07/05 18:57:48;;;;;;;10.50;4.60;;;;;;;19.14;90.65;98867.30;273630;1251;23357;-79
2023/07/05 19:03:52;;;;;;;8.00;5.00;;;;;;;19.09;91.72;98876.87;273731;1266;22222;-79
2023/07/05 19:09:54;;;;;;;8.10;5.40;;;;;;;19.12;92.81;98874.65;273741;1266;23283;-79
2023/07/05 19:15:55;;;;;;;9.60;5.30;;;;;;;19.06;92.66;98883.50;273708;1263;23213;-79
2023/07/05 19:21:57;;;;;;;8.00;4.90;;;;;;;19.02;93.51;98886.64;273774;1266;22527;-79
2023/07/05 19:27:59;;;;;;;11.30;5.40;;;;;;;18.98;93.56;98890.22;273834;1266;22488;-80
2023/07/05 19:34:01;;;;;;;10.30;5.70;;;;;;;18.92;93.82;98896.71;273594;1260;22238;-80
2023/07/05 19:40:02;;;;;;;9.40;5.40;;;;;;;18.89;94.41;98895.29;273584;1266;22231;-80
2023/07/05 19:46:13;;;;;;;9.70;5.60;;;;;;;18.83;94.66;98884.39;273719;1253;24044;-81
2023/07/05 19:52:24;;;;;;;11.20;6.50;;;;;;;18.76;95.23;98886.23;273641;1264;23415;-80
2023/07/05 19:58:34;;;;;;;11.00;5.60;;;;;;;18.65;95.82;98902.23;273442;1265;22277;-81
2023/07/05 20:04:36;;;;;;;12.50;5.20;;;;;;;18.46;96.10;98918.98;273751;1266;22416;-81
2023/07/05 20:10:37;;;;;;;13.90;5.50;;;;;;;18.44;97.57;98927.96;273729;1264;22380;-81
2023/07/05 20:16:39;;;;;;;9.30;5.50;;;;;;;18.43;97.11;98919.92;273830;1266;22534;-81
2023/07/05 20:22:40;;;;;;;8.20;5.00;;;;;;;18.37;97.49;98920.11;273755;1266;22959;-81
2023/07/05 20:28:41;;;;;;;7.30;5.10;;;;;;;18.35;97.92;98926.39;273779;1266;23770;-82
2023/07/05 20:34:55;;;;;;;8.50;5.20;;;;;;;18.35;98.30;98921.56;273775;1266;22265;-81
2023/07/05 20:41:27;;;;;;;7.40;4.40;;;;;;;18.37;99.14;98926.27;273630;1266;22277;-81
2023/07/05 20:47:29;;;;;;;8.10;5.10;;;;;;;18.30;99.56;98921.45;273678;1266;22209;-82
2023/07/05 20:53:34;;;;;;;11.90;5.80;;;;;;;18.25;99.91;98929.06;271523;1266;23237;-82
2023/07/05 20:59:43;;;;;;;11.00;6.20;;;;;;;18.16;99.91;98928.70;271287;1266;22540;-82
2023/07/05 21:05:48;;;;;;;8.80;6.30;;;;;;;18.23;100.00;98936.77;270459;1256;23818;-81
2023/07/05 21:12:32;;;;;;;10.00;6.10;;;;;;;18.28;100.00;98945.08;271451;1265;22601;-81
2023/07/05 21:18:34;;;;;;;10.40;5.60;;;;;;;18.21;100.00;98949.17;272678;1266;22447;-82
2023/07/05 21:24:36;;;;;;;6.90;4.50;;;;;;;18.15;100.00;98947.31;273972;1259;22225;-82
2023/07/05 21:30:51;;;;;;;13.40;4.80;;;;;;;18.20;100.00;98941.91;273484;1263;23312;-80
2023/07/05 21:36:53;;;;;;;7.30;5.00;;;;;;;18.28;100.00;98944.19;272270;1266;22341;-82
2023/07/05 21:42:55;;;;;;;6.50;4.90;;;;;;;18.34;100.00;98947.48;272417;1266;25561;-82
2023/07/05 21:49:39;;;;;;;10.10;4.90;;;;;;;18.40;100.00;98944.85;273424;1266;22475;-82
2023/07/05 21:55:43;;;;;;;7.50;5.00;;;;;;;18.47;100.00;98937.73;272349;1266;22749;-81
2023/07/05 22:01:44;;;;;;;7.20;4.60;;;;;;;18.53;100.00;98932.38;271962;1266;22180;-80
2023/07/05 22:15:23;;;;;;;7.80;4.30;;;;;;;18.54;100.00;98911.67;273530;1260;23049;-81
2023/07/05 22:21:25;;;;;;;9.50;4.20;;;;;;;18.48;100.00;98911.98;273825;1267;22439;-81
2023/07/05 22:27:26;;;;;;;5.00;3.80;;;;;;;18.36;100.00;98914.58;273978;1260;22420;-81
2023/07/05 22:33:27;;;;;;;7.60;4.60;;;;;;;18.26;100.00;98906.32;273941;1266;22371;-82
2023/07/05 22:39:28;;;;;;;5.70;3.60;;;;;;;18.16;100.00;98886.27;273983;1266;22441;-82
2023/07/05 22:45:32;;;;;;;7.00;4.50;;;;;;;18.07;100.00;98878.70;273117;1266;22512;-83
2023/07/05 22:51:57;;;;;;;;;;;;;;;;;;;;;
2023/07/05 22:58:09;;;;;;;6.20;4.40;;;;;;;18.02;100.00;98862.35;273983;1266;23840;-81
2023/07/05 23:04:14;;;;;;;10.20;4.10;;;;;;;18.00;100.00;98862.32;273586;1262;23183;-81
2023/07/05 23:10:15;;;;;;;6.50;4.00;;;;;;;17.97;100.00;98867.36;273423;1266;22249;-81
2023/07/05 23:16:19;;;;;;;6.40;3.80;;;;;;;17.99;100.00;98879.52;272492;1266;22492;-81
2023/07/05 23:22:26;;;;;;;6.70;4.60;;;;;;;17.96;100.00;98882.02;270896;1263;22547;-81
2023/07/05 23:28:27;;;;;;;9.20;5.00;;;;;;;17.89;100.00;98884.05;272711;1266;22572;-81
2023/07/05 23:34:47;;;;;;;7.80;4.10;;;;;;;17.84;100.00;98888.27;270901;1266;22565;-81
2023/07/05 23:40:52;;;;;;;8.10;5.80;;;;;;;17.85;100.00;98899.80;272916;1264;22788;-82
2023/07/05 23:46:53;;;;;;;9.10;6.20;;;;;;;17.83;100.00;98906.80;271710;1254;22538;-82
2023/07/05 23:52:55;;;;;;;12.50;5.70;;;;;;;17.80;100.00;98908.84;273610;1266;23599;-82
2023/07/05 23:58:57;;;;;;;12.40;5.90;;;;;;;17.82;100.00;98909.91;270582;1266;22506;-81
